Search flights

Viracopos Intl Airport, Campinas (SBKP)

Airport Weather & NOTAM's

METAR for:SBKP (Campinas/Viracopos Arpt, SP, BR)
Text:SBKP 152300Z 13011KT CAVOK 19/15 Q1025
Conditions at:2300 UTC 15 Jul 2024
Temperature: 19.0°C ( 66°F)
Dewpoint: 15.0°C ( 59°F) [RH = 78%]
Pressure (altimeter):30.27 inches Hg (1025.0 mb)
Winds:from the SE (130 degrees) at 13 MPH (11 knots; 5.7 m/s)
Visibility:6 or more sm (10+ km)
Ceiling:ceiling and visibility are OK
Clouds:unknown
TAF for:SBKP (Campinas/Viracopos Arpt, SP, BR) issued at 2200 UTC 15 Jul 2024
Text:TAF SBKP 152200Z 1600/1624 13012KT CAVOK TN14/1609Z TX26/1618Z
Forecast period:0000 UTC 16 July 2024 to 0000 UTC 17 July 2024
Forecast type:FROM: standard forecast or significant change
Winds:from the SE (130 degrees) at 14 MPH (12 knots; 6.2 m/s)
Visibility:6 or more sm (10+ km)
Clouds:missing
Temperature:MIN 14°C at 0900 UTC 16 Jul 2024
Temperature:MAX 26°C at 1800 UTC 16 Jul 2024
Text:PROB30 1608/1611 5000 BR BKN009 RMK PGQ
Forecast period:0800 to 1100 UTC 16 July 2024
Forecast type:PROBABLE: 30 percent likelihood of the following during this time
Visibility:3 sm (5 km)
Ceiling:900 feet AGL
Clouds:broken clouds at 900 feet AGL
Weather:BR (mist)

Live Departures & Arrivals

There are currently no arrivals or departures for this airport.

Departures History (last 12 months)

Flight No. Dest. Aircraft Date
UPV1004 SBRP Cockspur C... 2024-07-14 11:38:57
UPV1004 LPPT PMDG 777-3... 2024-07-13 01:34:15
UPV1005 SBCT PMDG 737-8... 2024-06-26 11:56:27
UPV1004 SBCF PMDG 777-3... 2024-06-26 15:15:08
UPV1004 SBRP Cockspur C... 2024-06-22 01:31:26
UPV1004 SBRP Airbus A32... 2024-06-21 22:08:51
UPV1004 SUMU Airbus A33... 2024-06-16 21:06:58
UPV1004 SBSV Boeing 787... 2024-06-02 20:40:23
UPV1004 SAEZ Boeing 787... 2024-05-30 21:10:20
LEG 02 SBCT PMDG 737-8... 2024-05-27 19:12:17
UPV1004 SBCF Boeing 787... 2024-05-26 03:26:32
UPV1017 SBRJ PMDG 737-7... 2024-05-18 20:12:04
UPV1004 SBRP Airbus A32... 2024-05-10 10:47:30
UPV1004 SBSV Headwind S... 2024-05-08 23:07:07
LEG 02 SBCT PMDG 737-8... 2024-05-08 11:24:55
LEG 02 SBCT PMDG 737-8... 2024-05-07 23:04:03
LEG 02 SBCT PMDG 737-8... 2024-05-07 23:05:32
LEG 02 SBCT PMDG 737-8... 2024-05-07 22:46:26
LEG 02 SBCT PMDG 737-8... 2024-05-07 22:37:55
UPV1022 SBGO Kodiak 100... 2024-05-02 17:56:19
UPV1004 SBSV Airbus A33... 2024-04-26 23:27:31
UPV1004 SBBR Boeing 787... 2024-04-21 20:30:38
UPV1004 SBRJ Airbus A32... 2024-04-16 22:47:06
UPV1004 SBRP FWB AZUL 2024-04-15 00:42:13
UPV1022 SBSP Black Squa... 2024-04-14 21:24:17
UPV1004 SBRP Airbus A32... 2024-04-02 23:21:20
UPV1004 SBCF Boeing 787... 2024-03-31 18:31:26
UPV1004 SBSV Airbus A33... 2024-03-31 12:48:13
UPV1004 SBSV Boeing 747... 2024-03-23 23:49:47
UPV1022 SBCF Fenix A320... 2024-03-12 13:48:24
UPV1004 SBEG Airbus A33... 2024-03-11 20:33:19
UPV1004 SBCF Boeing 787... 2024-03-10 05:35:55
UPV1022 SBCF ATR 72 UP... 2024-03-09 16:46:27
UPV1004 SBRP FWB AZUL 2024-02-24 02:19:59
UPV1004 SBRP FWB AZUL 2024-02-22 07:01:40
UPV1004 SBRP FWB AZUL 2024-02-19 14:43:17
UPV1022 SBGL Boeing 787... 2024-02-18 15:30:06
UPV1004 SBGL Airbus A33... 2024-02-18 21:43:25
UP1004 SBRP FWB AZUL 2024-02-07 14:59:17
UPV1004 SBFZ Airbus A33... 2024-02-04 20:45:59
UPV1004 SBRP FWB AZUL 2024-01-30 06:56:36
UPV1017 SBGL TBM 930 01... 2024-01-29 21:34:20
UPV1004 SBRP FWB AZUL 2024-01-28 18:54:04
UPV1004 SBLO FWB AZUL 2024-01-23 12:35:29
UPV1004 SBRP FWB AZUL 2024-01-23 23:56:07
UPV1004 LPPT Airbus A33... 2024-01-20 02:01:41
UPV1004 SBRP Airbus A33... 2024-01-18 10:10:07
UPV1004 SBRP Airbus A33... 2024-01-16 10:27:05
UPV1004 SBMO Airbus A33... 2024-01-13 19:54:44
UPV1004 SBRP Airbus A33... 2023-12-17 18:35:32
UPV1004 SCEL Airbus A33... 2023-12-12 22:13:12
UPV1004 SBRP Airbus A33... 2023-12-11 17:19:03
UPV1004 SBGL Boeing 787... 2023-12-07 08:09:14
UPV1004 SBSV Boeing 787... 2023-12-04 21:10:44
UPV1022 SBSP Airbus H14... 2023-12-03 16:57:19
UPV1004 SBRP Boeing 787... 2023-11-29 17:26:28
UPV1004 SBSV Boeing 787... 2023-11-28 09:35:29
UPV1004 SBPA Boeing 787... 2023-11-27 18:38:35
UPV1004 SBRP Cockspur C... 2023-11-27 08:31:16
UPV1004 SBSV Boeing 787... 2023-11-26 09:53:21
UPV1004 SBSV Boeing 787... 2023-11-25 11:42:31
UPV1004 SBRP PMDG 737-9... 2023-11-24 21:01:04
UPV1004 SAEZ B787 10 KL... 2023-11-13 23:40:18
UPV1004 SBFZ B787 10 KL... 2023-11-11 15:02:21
UPV1004 SBCF B787 10 KL... 2023-11-08 02:51:02
UPV1004 SBSP Cockspur C... 2023-11-06 15:50:01
UPV1004 SBSV Boeing 787... 2023-11-05 14:34:10
UPV1004 OMDB B787 10 KL... 2023-10-18 13:50:23
UPV1004 SBRP PMDG 737-9... 2023-09-26 08:51:03
UPV1004 SBSV Boeing 787... 2023-09-20 21:23:53
UPV1004 SBGL B787 10 KL... 2023-09-12 15:56:14
UPV1004 SBGL B787 10 KL... 2023-09-08 09:29:30
UPV1004 KMIA B787 10 KL... 2023-09-06 03:59:59
UPV1037 SBPF ATR 72-600... 2023-08-21 13:33:05
UPV1016 SBFL PMDG 737-7... 2023-07-29 07:39:04
UPV1037 SBGR B737 MAX 8... 2023-07-28 21:27:21
UPV1022 SBCP ATR 72-600... 2023-07-22 17:29:01

Arrivals History (last 12 months)

Flight No. Origin Aircraft Date
UPV1004 SAEZ PMDG 777-3... 2024-07-11 02:15:09
UPV1004 TNCM PMDG 777-3... 2024-07-01 23:55:39
UPV1004 SBRP PMDG 737-8... 2024-06-11 23:51:26
UPV1004 SBFZ Boeing 787... 2024-06-02 17:00:02
UPV1022 SBRJ PMDG 737-7... 2024-05-14 23:30:40
UPV1004 SBMO Airbus A33... 2024-05-10 02:15:28
LEG 01 SBCB PMDG 737-8... 2024-05-07 19:29:53
UPV1002 SBCB PMDG 737-8... 2024-05-05 14:39:38
LEG 01 SBCB PMDG 737-8... 2024-05-05 14:39:20
LEG 01 SBCB PMDG 737-8... 2024-05-04 23:36:16
LEG 01 SBCB PMDG 737-8... 2024-05-04 21:51:10
LEG 01 SBCB PMDG 737-8... 2024-05-04 21:49:00
UPV1022 SBCF PMDG 737-7... 2024-05-02 17:31:56
UPV1022 SBCB PMDG 737-8... 2024-05-01 18:39:43
UPV1001 SBCB PMDG 737-8... 2024-05-01 18:03:53
UPV1022 SBCB PMDG 737-8... 2024-04-30 20:08:03
UPV1001 SBCB PMDG 737-8... 2024-04-30 01:38:41
UPV1022 SBGO Airbus A32... 2024-04-18 23:49:55
UPV1004 SBRP Headwind S... 2024-04-15 23:41:19
UPV1022 SBSP Embraer Ph... 2024-04-14 21:14:52
UPV1004 SBAR Airbus A32... 2024-03-31 23:32:55
UPV1004 LPPT Airbus A33... 2024-03-31 11:54:41
UPV1004 SBRP FWB AZUL 2024-03-20 00:22:08
UPV1022 SBCN FFX Vision... 2024-03-19 13:11:08
UPV1004 SBCF Boeing 787... 2024-03-10 20:22:26
UPV1022 SBCT Airbus A32... 2024-03-09 16:22:45
UPV1004 SBRP Airbus A32... 2024-03-09 23:35:18
UPV1004 SBRP Boeing 787... 2024-02-23 11:25:37
UPV1004 SBRP FWB AZUL 2024-02-21 23:55:50
UPV1004 SBRP FWB AZUL 2024-02-16 23:24:07
UPV1004 SBRP FWB AZUL 2024-01-30 00:07:13
UPV1017 SBGL NextGen EM... 2024-01-29 12:07:13
UPV1004 SBRP FWB AZUL 2024-01-23 07:34:58
UPV1004 LPPT Airbus A33... 2024-01-22 11:52:42
UPV1004 SBRP Airbus A33... 2024-01-18 21:51:30
UPV1004 SBPA Airbus A33... 2024-01-17 23:23:00
UPV1004 SBRP Airbus A33... 2024-01-16 03:00:56
UPV1004 SBRP Airbus A33... 2024-01-13 12:16:09
UPV1004 SBRP Airbus A33... 2023-12-23 14:46:13
UPV1004 SBRP Airbus A33... 2023-12-11 21:02:57
UPV1004 SBBR Boeing 787... 2023-12-11 14:42:29
UPV1022 SBRJ Airbus H14... 2023-12-03 00:53:13
UPV1004 SBGL Boeing 787... 2023-12-02 10:47:48
UPV1004 SBSV Boeing 787... 2023-11-29 12:37:44
UPV1004 SBSV Airbus A33... 2023-11-25 22:42:37
UPV1004 SBRP Airbus A33... 2023-11-25 11:35:50
UPV1004 SBPA Boeing 787... 2023-11-23 20:54:16
UPV1004 SBSV B787 10 KL... 2023-11-12 22:28:04
UPV1004 SBSV B787 10 KL... 2023-11-12 01:54:29
UPV1004 SBRP PMDG 737-9... 2023-11-11 14:56:02
UPV1004 SBSV Boeing 787... 2023-09-21 22:36:21
UPV1004 MDSD B787 10 KL... 2023-09-12 10:32:54
UPV1037 SBGR Beechcraft... 2023-08-27 15:03:33
UPV1022 SBJV ATR 72-600... 2023-07-19 00:33:05

Runway Information (Airport elevation: 2,154ft)

Runway 15 Length 10,627ft Width 138ft Elevation 2,154ft Surface Asphalt Heading 128
Runway 33 Length 10,627ft Width 138ft Elevation 2,154ft Surface Asphalt Heading 308

Airport Frequencies

Type ATIS Frequency 127.825 Mhz
Type Clearance Frequency 121.100 Mhz
Type Ground Frequency 121.900 Mhz
Type Tower Frequency 118.250 Mhz
Type APP/DEP Frequency 119.050 Mhz
Type APP/DEP Frequency 119.150 Mhz
Type APP/DEP Frequency 119.250 Mhz
Type APP/DEP Frequency 119.550 Mhz
Type APP/DEP Frequency 119.600 Mhz
Type APP/DEP Frequency 119.750 Mhz
Type APP/DEP Frequency 119.800 Mhz
Type APP/DEP Frequency 120.050 Mhz
Type APP/DEP Frequency 120.100 Mhz
Type APP/DEP Frequency 120.250 Mhz
Type APP/DEP Frequency 120.400 Mhz
Type APP/DEP Frequency 120.450 Mhz
Type APP/DEP Frequency 120.850 Mhz
Type APP/DEP Frequency 121.350 Mhz
Type APP/DEP Frequency 121.400 Mhz
Type APP/DEP Frequency 122.400 Mhz
Type APP/DEP Frequency 122.750 Mhz
Type APP/DEP Frequency 123.250 Mhz
Type APP/DEP Frequency 123.900 Mhz
Type APP/DEP Frequency 124.150 Mhz
Type APP/DEP Frequency 124.700 Mhz
Type APP/DEP Frequency 125.600 Mhz
Type APP/DEP Frequency 129.000 Mhz
Type APP/DEP Frequency 129.050 Mhz
Type APP/DEP Frequency 129.500 Mhz
Type APP/DEP Frequency 129.750 Mhz
Type APP/DEP Frequency 132.100 Mhz
Type APP/DEP Frequency 133.850 Mhz
Type APP/DEP Frequency 134.150 Mhz
Type APP/DEP Frequency 134.900 Mhz
Type APP/DEP Frequency 135.750 Mhz

Airport Navaids

Type VOR-DME Ident CPN Frequency 112000 Khz
Type NDB Ident KP Frequency 395 Khz